Time;durP1;ratioP1;P1;durP2;ratioP2;P2;SDS_P1;SDS_P2;PMS_P1;PMS_P2;Temp;Humidity;BMP_temperature;BMP_pressure;BME280_temperature;BME280_humidity;BME280_pressure;Samples;Min_cycle;Max_cycle;Signal;HPM_P1;HPM_P2
2022/12/01 00:01:14;;;;;;;28.45;16.90;;;;;;;9.30;66.06;102608.81;5137680;28;20047;-64
2022/12/01 00:03:43;;;;;;;24.63;15.25;;;;;;;9.30;65.60;102598.09;5133075;28;20048;-64
2022/12/01 00:06:14;;;;;;;30.75;16.38;;;;;;;9.27;66.24;102596.59;5140886;28;20081;-64
2022/12/01 00:10:24;;;;;;;27.80;15.95;;;;;;;9.25;65.29;102595.91;5143647;28;20043;-64
2022/12/01 00:11:33;;;;;;;26.02;16.35;;;;;;;9.25;65.41;102600.44;5139776;28;20051;-64
2022/12/01 00:14:01;;;;;;;27.30;16.23;;;;;;;9.24;66.15;102601.47;5143328;28;20070;-64
2022/12/01 00:16:29;;;;;;;27.20;15.98;;;;;;;9.26;65.49;102599.44;5132028;28;20449;-64
2022/12/01 00:18:57;;;;;;;31.52;16.67;;;;;;;9.21;66.08;102591.91;5142326;28;20048;-63
2022/12/01 00:21:26;;;;;;;29.38;16.52;;;;;;;9.20;65.43;102598.28;5139437;28;20051;-63
2022/12/01 00:23:56;;;;;;;30.73;16.73;;;;;;;9.21;65.49;102597.28;5142801;28;20039;-64
2022/12/01 00:26:25;;;;;;;30.38;17.15;;;;;;;9.20;66.10;102587.53;5137131;28;20062;-63
2022/12/01 00:28:56;;;;;;;29.23;17.17;;;;;;;9.21;66.07;102591.91;5140972;28;20100;-64
2022/12/01 00:31:23;;;;;;;30.90;17.65;;;;;;;9.18;65.90;102586.88;5140125;28;20085;-63
2022/12/01 00:33:52;;;;;;;29.10;16.95;;;;;;;9.19;65.32;102585.03;5134836;28;20044;-63
2022/12/01 00:36:19;;;;;;;31.23;18.33;;;;;;;9.19;65.45;102585.88;5140607;28;20047;-63
2022/12/01 00:38:47;;;;;;;31.73;17.38;;;;;;;9.19;65.55;102596.59;5140370;27;20053;-62
2022/12/01 00:41:15;;;;;;;28.52;17.27;;;;;;;9.22;66.10;102590.91;5147096;27;20438;-63
2022/12/01 00:43:42;;;;;;;33.28;18.10;;;;;;;9.21;65.81;102585.69;5142140;27;20059;-63
2022/12/01 00:46:11;;;;;;;30.92;17.83;;;;;;;9.21;65.34;102591.06;5147441;27;20042;-63
2022/12/01 00:48:39;;;;;;;27.67;17.30;;;;;;;9.20;66.12;102592.06;5143722;27;20054;-63
2022/12/01 00:51:07;;;;;;;31.15;16.77;;;;;;;9.21;66.16;102593.75;5143856;27;20078;-63
2022/12/01 00:53:35;;;;;;;32.60;18.05;;;;;;;9.21;65.39;102586.53;5145341;27;20058;-63
2022/12/01 00:56:03;;;;;;;32.38;17.88;;;;;;;9.22;65.54;102592.75;5145924;27;20046;-63
2022/12/01 00:58:30;;;;;;;31.05;17.67;;;;;;;9.22;66.04;102590.06;5145174;27;20135;-63
2022/12/01 01:00:59;;;;;;;28.13;16.52;;;;;;;9.16;65.76;102588.91;5146885;27;20051;-63
2022/12/01 01:03:30;;;;;;;28.52;16.92;;;;;;;9.14;66.06;102586.38;5142032;27;20054;-63
2022/12/01 01:06:04;;;;;;;29.70;18.05;;;;;;;9.16;66.01;102596.09;5138805;27;20468;-63
2022/12/01 01:08:32;;;;;;;32.20;18.67;;;;;;;9.18;65.99;102602.13;5141123;27;20047;-64
2022/12/01 01:11:00;;;;;;;31.77;16.98;;;;;;;9.18;65.51;102602.97;5146741;27;20357;-64
2022/12/01 01:13:29;;;;;;;36.33;18.85;;;;;;;9.18;66.00;102604.81;5141696;27;20043;-64
2022/12/01 01:15:58;;;;;;;31.98;17.40;;;;;;;9.19;65.57;102598.44;5145868;27;20122;-64
2022/12/01 01:18:26;;;;;;;36.33;17.98;;;;;;;9.17;65.55;102601.31;5146305;27;20106;-63
2022/12/01 01:21:01;;;;;;;32.50;18.92;;;;;;;9.17;66.01;102608.50;5142527;27;20142;-63
2022/12/01 01:23:29;;;;;;;32.50;18.10;;;;;;;9.16;66.09;102604.16;5142637;27;20043;-63
2022/12/01 01:26:01;;;;;;;36.45;18.05;;;;;;;9.16;65.59;102614.88;5146566;27;20043;-63
2022/12/01 01:28:30;;;;;;;30.42;16.98;;;;;;;9.14;65.81;102618.56;5143985;27;20134;-62
2022/12/01 01:30:58;;;;;;;38.10;19.55;;;;;;;9.14;65.58;102623.09;5136145;27;20044;-62
2022/12/01 01:33:25;;;;;;;41.13;20.25;;;;;;;9.10;65.70;102622.59;5143650;27;20520;-64
2022/12/01 01:35:53;;;;;;;38.67;20.75;;;;;;;9.10;66.00;102633.31;5140349;27;20069;-63
2022/12/01 01:38:22;;;;;;;38.28;19.50;;;;;;;9.10;66.19;102624.44;5130317;27;20053;-63
2022/12/01 01:40:50;;;;;;;37.10;18.63;;;;;;;9.08;66.13;102634.50;5145279;27;20059;-63
2022/12/01 01:43:37;;;;;;;41.90;20.63;;;;;;;9.07;66.21;102628.28;5137047;27;20058;-62
2022/12/01 01:46:06;;;;;;;40.83;20.48;;;;;;;9.07;66.33;102633.66;5143429;27;20039;-63
2022/12/01 01:48:36;;;;;;;44.40;20.63;;;;;;;8.99;65.92;102632.81;5142096;27;20376;-64
2022/12/01 01:51:05;;;;;;;42.83;20.55;;;;;;;8.99;66.20;102633.66;5143906;27;20193;-63
2022/12/01 01:53:34;;;;;;;47.13;20.55;;;;;;;8.98;66.21;102629.31;5146170;27;20110;-63
2022/12/01 01:56:03;;;;;;;43.78;21.30;;;;;;;8.92;66.13;102624.59;5146403;27;20544;-63
2022/12/01 01:58:32;;;;;;;43.80;22.08;;;;;;;9.00;65.80;102643.38;5144639;27;20086;-63
2022/12/01 02:01:00;;;;;;;42.30;21.15;;;;;;;9.01;65.97;102634.34;5138514;27;20369;-63
2022/12/01 02:03:29;;;;;;;42.70;21.88;;;;;;;9.02;66.54;102632.50;5143237;27;20047;-63
2022/12/01 02:05:57;;;;;;;41.88;22.08;;;;;;;9.01;66.04;102634.34;5143002;27;20110;-62
2022/12/01 02:08:35;;;;;;;47.22;21.70;;;;;;;8.99;66.59;102632.81;5145582;27;20130;-63
2022/12/01 02:11:21;;;;;;;43.15;22.33;;;;;;;8.96;66.32;102634.00;5134256;27;20047;-63
2022/12/01 02:14:00;;;;;;;46.13;22.70;;;;;;;8.97;65.87;102627.63;5143854;27;20043;-63
2022/12/01 02:16:35;;;;;;;47.83;22.50;;;;;;;8.97;66.60;102627.63;5134226;27;20059;-63
2022/12/01 02:19:25;;;;;;;45.33;21.33;;;;;;;8.94;66.53;102630.66;5142529;27;20046;-62
2022/12/01 02:22:03;;;;;;;50.13;24.35;;;;;;;8.95;66.38;102636.84;5133096;27;20044;-62
2022/12/01 02:25:10;;;;;;;47.50;21.77;;;;;;;8.92;66.90;102634.50;5146496;27;20039;-63
2022/12/01 02:28:02;;;;;;;41.00;20.80;;;;;;;8.94;66.28;102640.53;5143526;27;20054;-63
2022/12/01 02:30:40;;;;;;;46.05;22.50;;;;;;;8.92;66.04;102629.97;5142121;27;20059;-63
2022/12/01 02:33:16;;;;;;;45.72;21.23;;;;;;;8.92;66.21;102624.59;5144538;27;20051;-63
2022/12/01 02:35:48;;;;;;;47.45;22.50;;;;;;;8.93;67.05;102625.44;5140960;27;20068;-63
2022/12/01 02:38:24;;;;;;;45.58;22.17;;;;;;;8.93;67.11;102622.78;5142514;27;20043;-63
2022/12/01 02:40:58;;;;;;;45.10;22.60;;;;;;;8.94;66.82;102621.75;5141142;27;20062;-63
2022/12/01 02:43:31;;;;;;;43.13;20.95;;;;;;;8.94;66.59;102630.66;5138972;27;20051;-63
2022/12/01 02:46:08;;;;;;;42.80;20.25;;;;;;;8.94;66.05;102625.28;5143180;27;20040;-63
2022/12/01 02:48:39;;;;;;;45.45;20.70;;;;;;;8.95;66.60;102631.47;5144179;27;20096;-63
2022/12/01 02:51:14;;;;;;;40.90;20.15;;;;;;;8.96;66.50;102634.00;5142234;27;20190;-63
2022/12/01 02:53:42;;;;;;;39.75;20.58;;;;;;;8.96;65.71;102630.47;5144110;27;20110;-63
2022/12/01 02:56:11;;;;;;;41.85;20.63;;;;;;;8.95;66.70;102626.13;5143904;27;20095;-63
2022/12/01 02:58:39;;;;;;;38.97;20.55;;;;;;;8.96;66.02;102636.69;5144639;27;20129;-63
2022/12/01 03:01:20;;;;;;;48.60;22.10;;;;;;;8.96;65.90;102633.16;5137910;27;20050;-63
2022/12/01 03:04:00;;;;;;;41.45;21.30;;;;;;;8.95;66.30;102640.38;5142891;27;20667;-63
2022/12/01 03:06:40;;;;;;;37.38;19.85;;;;;;;8.93;65.93;102637.00;5143090;27;20039;-63
2022/12/01 03:09:16;;;;;;;43.47;20.17;;;;;;;8.90;66.18;102631.16;5138467;27;20051;-63
2022/12/01 03:11:50;;;;;;;38.57;19.87;;;;;;;8.93;66.56;102626.28;5139400;27;20043;-63
2022/12/01 03:14:32;;;;;;;47.17;19.92;;;;;;;8.94;66.45;102629.81;5127706;27;20300;-63
2022/12/01 03:17:07;;;;;;;42.30;21.77;;;;;;;8.94;65.88;102627.13;5139886;27;20058;-64
2022/12/01 03:19:41;;;;;;;39.05;20.60;;;;;;;8.94;65.91;102632.50;5145130;27;20051;-63
2022/12/01 03:22:14;;;;;;;43.67;21.83;;;;;;;8.91;66.43;102630.13;5141866;27;20142;-64
2022/12/01 03:24:47;;;;;;;44.00;22.75;;;;;;;8.87;65.94;102634.16;5135741;27;20048;-63
2022/12/01 03:27:18;;;;;;;41.10;20.08;;;;;;;8.86;66.18;102632.47;5140714;27;20059;-64
2022/12/01 03:29:49;;;;;;;39.97;20.23;;;;;;;8.87;66.10;102631.47;5135732;27;20110;-63
2022/12/01 03:32:27;;;;;;;41.28;20.70;;;;;;;8.89;66.43;102626.78;5136917;27;20502;-64
2022/12/01 03:34:59;;;;;;;44.65;20.88;;;;;;;8.89;66.26;102630.31;5144811;28;20115;-62
2022/12/01 03:37:31;;;;;;;41.88;20.30;;;;;;;8.89;66.07;102626.78;5136635;28;20047;-62
2022/12/01 03:40:02;;;;;;;41.63;20.35;;;;;;;8.82;66.40;102618.56;5154078;27;20133;-64
2022/12/01 03:42:35;;;;;;;38.55;20.23;;;;;;;8.89;66.72;102627.63;5142968;27;20114;-64
2022/12/01 03:45:07;;;;;;;45.28;20.17;;;;;;;8.86;66.85;102627.13;5144297;28;20062;-63
2022/12/01 03:47:38;;;;;;;43.58;20.10;;;;;;;8.87;66.06;102632.31;5142336;28;20102;-63
2022/12/01 03:50:12;;;;;;;46.88;20.00;;;;;;;8.87;66.62;102628.78;5131182;28;20576;-63
2022/12/01 03:52:49;;;;;;;40.53;19.02;;;;;;;8.86;66.55;102630.63;5143481;28;20065;-63
2022/12/01 03:55:22;;;;;;;39.33;19.45;;;;;;;8.87;66.36;102628.78;5142444;28;20047;-63
2022/12/01 03:57:55;;;;;;;43.40;19.73;;;;;;;8.88;67.02;102622.44;5136711;28;20525;-63
2022/12/01 04:00:23;;;;;;;43.45;20.67;;;;;;;8.83;66.72;102628.28;5123802;28;20047;-63
2022/12/01 04:02:56;;;;;;;41.17;19.48;;;;;;;8.85;66.72;102634.31;5132973;28;20066;-63
2022/12/01 04:05:24;;;;;;;37.28;19.25;;;;;;;8.85;66.56;102630.81;5144748;28;20070;-63
2022/12/01 04:07:52;;;;;;;44.55;19.70;;;;;;;8.67;66.83;102623.75;5140098;28;20076;-63
2022/12/01 04:10:20;;;;;;;38.53;19.77;;;;;;;8.78;66.65;102630.63;5138184;28;20051;-62
2022/12/01 04:12:47;;;;;;;41.03;20.15;;;;;;;8.76;66.79;102640.69;5141106;27;20071;-62
2022/12/01 04:15:15;;;;;;;37.80;19.67;;;;;;;8.75;66.86;102645.22;5145781;27;20465;-62
2022/12/01 04:17:44;;;;;;;42.55;20.55;;;;;;;8.70;67.14;102634.16;5142236;27;20059;-63
2022/12/01 04:20:14;;;;;;;39.45;19.65;;;;;;;8.76;66.38;102640.69;5148087;27;20429;-63
2022/12/01 04:22:42;;;;;;;42.75;19.92;;;;;;;8.77;66.78;102626.28;5138742;27;20051;-63
2022/12/01 04:25:11;;;;;;;39.00;20.23;;;;;;;8.75;67.15;102637.16;5147139;27;20111;-62
2022/12/01 04:27:39;;;;;;;38.35;19.83;;;;;;;8.73;66.78;102636.50;5144792;27;20047;-62
2022/12/01 04:30:08;;;;;;;38.85;19.90;;;;;;;8.71;67.06;102640.34;5128598;27;20048;-62
2022/12/01 04:32:38;;;;;;;38.42;19.77;;;;;;;8.74;66.83;102638.16;5145456;27;20061;-62
2022/12/01 04:35:06;;;;;;;43.60;20.20;;;;;;;8.73;67.14;102641.03;5147769;27;20051;-63
2022/12/01 04:37:36;;;;;;;43.40;21.45;;;;;;;8.72;66.37;102644.69;5134219;27;20106;-64
2022/12/01 04:40:04;;;;;;;43.45;21.13;;;;;;;8.67;67.17;102637.16;5139145;27;20166;-64
2022/12/01 04:42:32;;;;;;;41.67;19.98;;;;;;;8.71;66.47;102634.97;5146643;27;20122;-63
2022/12/01 04:45:00;;;;;;;39.90;19.63;;;;;;;8.72;66.80;102632.13;5130756;27;20044;-64
2022/12/01 04:47:27;;;;;;;40.28;20.02;;;;;;;8.73;66.61;102638.34;5143913;27;20046;-63
2022/12/01 04:49:55;;;;;;;39.20;19.88;;;;;;;8.73;66.87;102633.81;5147353;27;20061;-63
2022/12/01 04:52:23;;;;;;;40.90;20.33;;;;;;;8.76;66.80;102627.28;5144554;27;20114;-62
2022/12/01 04:54:52;;;;;;;43.42;19.92;;;;;;;8.75;66.71;102633.66;5147976;27;20047;-63
2022/12/01 04:57:20;;;;;;;39.08;20.23;;;;;;;8.79;66.68;102630.47;5146048;27;20047;-63
2022/12/01 04:59:47;;;;;;;36.15;18.17;;;;;;;8.76;66.72;102630.81;5137901;27;20126;-63
2022/12/01 05:02:16;;;;;;;38.35;20.27;;;;;;;8.78;66.83;102634.16;5141600;27;20106;-63
2022/12/01 05:04:46;;;;;;;39.75;18.90;;;;;;;8.77;66.29;102626.28;5147852;27;20073;-63
2022/12/01 05:07:14;;;;;;;38.03;20.33;;;;;;;8.76;66.06;102636.16;5140994;27;20109;-63
2022/12/01 05:09:42;;;;;;;37.38;19.55;;;;;;;8.76;67.08;102633.47;5138135;27;20139;-63
2022/12/01 05:12:11;;;;;;;36.05;18.65;;;;;;;8.78;66.11;102633.31;5141730;27;20126;-63
2022/12/01 05:14:39;;;;;;;39.72;18.98;;;;;;;8.75;66.77;102637.16;5146632;27;20069;-63
2022/12/01 05:17:06;;;;;;;36.50;19.63;;;;;;;8.77;66.57;102632.47;5142921;27;20411;-63
2022/12/01 05:22:19;;;;;;;35.15;18.02;;;;;;;8.62;67.24;102636.84;5140549;27;20047;-63
2022/12/01 05:25:08;;;;;;;35.65;18.85;;;;;;;8.63;66.77;102635.00;5146825;27;20043;-63
2022/12/01 05:27:37;;;;;;;33.08;17.38;;;;;;;8.64;66.53;102639.34;5143706;27;20039;-63
2022/12/01 05:30:07;;;;;;;31.77;18.23;;;;;;;8.60;66.72;102638.00;5133673;27;20069;-63
2022/12/01 05:32:34;;;;;;;37.90;19.35;;;;;;;8.64;66.40;102642.88;5145441;27;20058;-63
2022/12/01 05:35:02;;;;;;;33.67;18.50;;;;;;;8.65;66.61;102635.69;5139925;27;20106;-63
2022/12/01 05:37:33;;;;;;;36.88;19.17;;;;;;;8.64;66.58;102636.69;5143519;27;20142;-63
2022/12/01 05:40:01;;;;;;;31.35;17.50;;;;;;;8.66;66.43;102648.06;5145937;27;20061;-63
2022/12/01 05:42:29;;;;;;;29.75;17.42;;;;;;;8.66;66.60;102640.88;5140438;27;20122;-63
2022/12/01 05:44:58;;;;;;;36.20;19.60;;;;;;;8.59;66.54;102634.50;5146983;27;20051;-63
2022/12/01 05:47:25;;;;;;;33.97;16.90;;;;;;;8.63;67.12;102646.56;5152700;27;20061;-62
2022/12/01 05:49:53;;;;;;;29.20;16.20;;;;;;;8.67;66.36;102647.03;5143838;27;20047;-63
2022/12/01 05:52:21;;;;;;;30.70;17.00;;;;;;;8.67;66.08;102645.19;5144942;27;20055;-62
2022/12/01 05:54:48;;;;;;;29.65;17.02;;;;;;;8.69;66.43;102642.34;5134520;27;20058;-63
2022/12/01 05:57:16;;;;;;;34.72;18.60;;;;;;;8.69;66.02;102637.00;5139675;27;20322;-63
2022/12/01 05:59:44;;;;;;;31.25;15.88;;;;;;;8.66;67.08;102634.66;5131308;27;20065;-63
2022/12/01 06:02:13;;;;;;;30.80;16.38;;;;;;;8.65;66.27;102639.19;5139886;27;20050;-65
2022/12/01 06:04:41;;;;;;;29.95;16.08;;;;;;;8.57;66.91;102643.69;5145508;27;20135;-64
2022/12/01 06:07:09;;;;;;;32.83;17.23;;;;;;;8.53;67.30;102645.03;5131123;27;20111;-64
2022/12/01 06:09:37;;;;;;;30.42;16.35;;;;;;;8.56;66.70;102645.53;5145657;27;20043;-64
2022/12/01 06:12:05;;;;;;;30.80;16.88;;;;;;;8.55;66.97;102648.38;5140022;27;20132;-65
2022/12/01 06:14:32;;;;;;;33.28;17.13;;;;;;;8.53;66.56;102651.22;5141586;27;20466;-66
2022/12/01 06:17:00;;;;;;;30.67;16.83;;;;;;;8.55;66.64;102654.59;5144260;27;20045;-64
2022/12/01 06:19:30;;;;;;;29.73;15.60;;;;;;;8.56;66.56;102648.22;5142808;27;20043;-64
2022/12/01 06:21:57;;;;;;;27.60;15.70;;;;;;;8.58;66.10;102651.56;5136018;27;20065;-65
2022/12/01 06:24:25;;;;;;;29.40;17.38;;;;;;;8.58;67.13;102651.56;5143916;27;20046;-63
2022/12/01 06:26:53;;;;;;;31.23;17.60;;;;;;;8.62;66.28;102654.78;5143327;27;20401;-66
2022/12/01 06:29:21;;;;;;;29.10;16.77;;;;;;;8.62;66.63;102652.09;5144200;27;20053;-64
2022/12/01 06:31:48;;;;;;;31.88;17.15;;;;;;;8.60;66.70;102654.09;5144188;27;20115;-68
2022/12/01 06:34:16;;;;;;;29.58;17.05;;;;;;;8.61;66.31;102650.41;5143493;27;20050;-67
2022/12/01 06:36:45;;;;;;;28.35;15.82;;;;;;;8.53;66.97;102653.91;5143045;27;20049;-64
2022/12/01 06:39:15;;;;;;;29.90;17.27;;;;;;;8.58;67.07;102659.63;5140015;27;20075;-64
2022/12/01 06:41:43;;;;;;;32.33;16.50;;;;;;;8.57;66.70;102646.38;5144257;27;20047;-64
2022/12/01 06:44:11;;;;;;;31.90;15.50;;;;;;;8.60;67.01;102659.44;5145150;27;20103;-64
2022/12/01 06:46:39;;;;;;;33.38;17.88;;;;;;;8.58;66.89;102659.63;5132210;27;20050;-63
2022/12/01 06:49:11;;;;;;;29.73;15.88;;;;;;;8.60;66.50;102662.97;5144307;27;20054;-63
2022/12/01 06:51:39;;;;;;;32.33;16.20;;;;;;;8.60;67.00;102657.63;4783157;27;9999832;-64
2022/12/01 06:54:11;;;;;;;28.13;14.77;;;;;;;8.62;66.27;102658.28;5131065;27;20054;-63
2022/12/01 06:56:38;;;;;;;29.13;16.08;;;;;;;8.64;66.19;102671.53;5131443;27;20054;-64
2022/12/01 06:59:07;;;;;;;31.92;16.48;;;;;;;8.63;66.40;102669.84;5132580;27;20066;-64
2022/12/01 07:01:34;;;;;;;29.20;15.63;;;;;;;8.64;66.82;102676.88;5120056;27;20059;-65
2022/12/01 07:04:02;;;;;;;31.48;15.50;;;;;;;8.63;66.90;102680.56;5133791;27;20055;-63
2022/12/01 07:06:31;;;;;;;28.13;15.40;;;;;;;8.63;66.15;102680.56;5135680;27;20536;-65
2022/12/01 07:08:58;;;;;;;29.08;15.73;;;;;;;8.57;66.88;102686.59;5139616;27;20061;-65
2022/12/01 07:11:29;;;;;;;30.17;16.38;;;;;;;8.55;66.97;102684.06;5137154;27;20067;-63
2022/12/01 07:13:58;;;;;;;27.95;15.77;;;;;;;8.49;66.98;102682.03;5134986;27;20055;-64
2022/12/01 07:16:26;;;;;;;32.80;17.63;;;;;;;8.46;67.16;102698.44;5138372;27;20126;-64
2022/12/01 07:18:53;;;;;;;33.03;18.05;;;;;;;8.50;66.54;102689.06;5142015;27;20058;-64
2022/12/01 07:21:22;;;;;;;32.50;17.00;;;;;;;8.54;66.36;102700.31;5143985;27;20047;-63
2022/12/01 07:23:50;;;;;;;29.88;16.33;;;;;;;8.54;67.12;102705.66;5144054;27;20042;-63
2022/12/01 07:26:18;;;;;;;29.23;17.05;;;;;;;8.50;67.28;102691.75;5131562;28;20071;-63
2022/12/01 07:28:47;;;;;;;28.27;16.17;;;;;;;8.52;66.38;102705.00;5143339;27;20043;-63
2022/12/01 07:31:17;;;;;;;31.42;16.70;;;;;;;8.54;66.96;102711.03;5139029;27;20055;-67
2022/12/01 07:33:45;;;;;;;27.23;15.63;;;;;;;8.56;66.97;102707.19;5137040;27;20081;-65
2022/12/01 07:36:14;;;;;;;30.63;17.33;;;;;;;8.53;66.29;102701.31;5131187;27;20047;-65
2022/12/01 07:38:42;;;;;;;30.85;16.30;;;;;;;8.56;66.44;102701.81;5124022;28;20055;-66
2022/12/01 07:41:11;;;;;;;28.35;16.38;;;;;;;8.55;66.56;102705.50;5139817;27;20059;-65
2022/12/01 07:43:39;;;;;;;29.85;15.93;;;;;;;8.58;66.64;102704.34;5124717;28;20161;-65
2022/12/01 07:46:10;;;;;;;29.15;16.77;;;;;;;8.58;65.94;102712.38;5142550;28;20066;-65
2022/12/01 07:48:43;;;;;;;32.45;17.10;;;;;;;8.59;66.04;102706.00;5142500;27;20048;-65
2022/12/01 07:51:14;;;;;;;32.53;16.85;;;;;;;8.59;66.65;102711.38;5127204;28;20047;-65
2022/12/01 07:53:43;;;;;;;32.05;16.70;;;;;;;8.56;66.77;102709.03;5168115;27;20110;-65
2022/12/01 07:56:11;;;;;;;31.48;16.17;;;;;;;8.58;66.29;102704.34;5151225;27;20047;-65
2022/12/01 07:58:39;;;;;;;31.23;16.65;;;;;;;8.54;66.62;102709.19;5146366;27;20081;-65
2022/12/01 08:01:10;;;;;;;34.08;17.85;;;;;;;8.48;66.42;102712.50;5132597;27;20071;-66
2022/12/01 08:03:39;;;;;;;30.85;16.80;;;;;;;8.47;66.97;102709.00;5147493;27;20134;-66
2022/12/01 08:06:07;;;;;;;31.90;16.23;;;;;;;8.53;66.39;102717.38;5131054;27;20225;-65
2022/12/01 08:08:38;;;;;;;34.63;17.00;;;;;;;8.49;66.12;102716.88;5141229;27;20055;-66
2022/12/01 08:11:10;;;;;;;30.98;16.23;;;;;;;8.47;66.35;102713.50;5148346;27;20112;-66
2022/12/01 08:13:38;;;;;;;28.90;16.33;;;;;;;8.52;66.11;102721.06;5144733;27;20106;-66
2022/12/01 08:16:08;;;;;;;32.22;17.38;;;;;;;8.48;66.28;102720.56;5146644;27;20218;-65
2022/12/01 08:18:37;;;;;;;32.20;16.40;;;;;;;8.49;66.35;102730.28;5146767;27;20043;-65
2022/12/01 08:21:06;;;;;;;31.80;16.20;;;;;;;8.49;65.98;102730.28;5145917;27;20134;-65
2022/12/01 08:23:34;;;;;;;29.65;16.73;;;;;;;8.46;66.41;102731.44;5138053;27;20039;-65
2022/12/01 08:26:02;;;;;;;33.72;17.10;;;;;;;8.48;66.69;102725.91;5148012;27;20115;-65
2022/12/01 08:28:30;;;;;;;33.97;17.75;;;;;;;8.52;65.81;102729.94;5148209;27;20058;-69
2022/12/01 08:30:58;;;;;;;31.88;16.55;;;;;;;8.54;66.13;102730.63;5142430;27;20469;-63
2022/12/01 08:33:28;;;;;;;33.05;16.45;;;;;;;8.53;65.59;102728.94;5136118;27;20054;-65
2022/12/01 08:35:56;;;;;;;31.15;16.83;;;;;;;8.51;65.89;102744.34;5147221;27;20061;-64
2022/12/01 08:38:24;;;;;;;33.38;17.42;;;;;;;8.48;65.79;102737.47;5147187;27;20130;-64
2022/12/01 08:40:55;;;;;;;33.47;17.33;;;;;;;8.48;66.26;102742.00;5127187;27;20051;-64
2022/12/01 08:43:22;;;;;;;35.13;17.13;;;;;;;8.50;65.65;102736.47;5129305;27;20051;-64
2022/12/01 08:46:11;;;;;;;29.92;15.75;;;;;;;8.51;65.55;102751.53;5126569;27;20043;-65
2022/12/01 08:48:40;;;;;;;32.47;16.63;;;;;;;8.55;65.67;102748.38;5130264;27;20039;-65
2022/12/01 08:51:11;;;;;;;30.55;18.20;;;;;;;8.63;64.94;102745.72;5126048;28;20483;-65
2022/12/01 08:53:43;;;;;;;31.13;17.13;;;;;;;8.81;65.31;102748.25;5145408;27;20051;-65
2022/12/01 08:56:16;;;;;;;30.92;16.55;;;;;;;8.96;65.03;102743.09;5138977;27;20104;-65
2022/12/01 08:58:43;;;;;;;34.38;17.83;;;;;;;9.20;64.12;102745.81;5133032;27;20035;-65
2022/12/01 09:01:13;;;;;;;33.30;17.00;;;;;;;9.40;63.61;102735.59;5145197;27;20114;-65
2022/12/01 09:03:43;;;;;;;34.72;17.20;;;;;;;9.55;62.78;102741.13;5131139;27;20125;-65
2022/12/01 09:06:13;;;;;;;30.65;17.20;;;;;;;9.67;62.48;102746.00;5146714;27;20061;-64
2022/12/01 09:08:41;;;;;;;37.13;17.75;;;;;;;9.82;61.87;102746.16;5136489;27;20170;-65
2022/12/01 09:11:12;;;;;;;31.25;16.80;;;;;;;9.97;61.19;102736.38;5147137;27;20114;-64
2022/12/01 09:13:41;;;;;;;34.15;17.45;;;;;;;10.07;60.95;102733.50;5137913;27;20046;-65
2022/12/01 09:16:13;;;;;;;32.58;17.50;;;;;;;10.23;60.59;102746.91;5126265;28;20134;-65
2022/12/01 09:18:44;;;;;;;36.17;19.13;;;;;;;10.25;60.22;102733.31;5128337;27;20047;-64
2022/12/01 09:21:13;;;;;;;30.92;16.77;;;;;;;10.28;60.20;102735.66;5141746;27;20058;-65
2022/12/01 09:23:41;;;;;;;33.33;17.85;;;;;;;10.23;60.45;102738.84;5126719;28;20127;-65
2022/12/01 09:26:10;;;;;;;30.60;16.48;;;;;;;10.31;60.17;102743.38;5140097;27;20069;-65
2022/12/01 09:28:40;;;;;;;31.05;18.13;;;;;;;10.25;60.22;102749.44;5146930;27;20095;-65
2022/12/01 09:31:10;;;;;;;32.92;16.73;;;;;;;10.24;59.76;102747.75;5146329;27;20461;-65
2022/12/01 09:33:38;;;;;;;32.58;17.48;;;;;;;10.29;60.02;102737.31;5146580;27;20381;-64
2022/12/01 09:36:08;;;;;;;35.67;17.38;;;;;;;10.36;59.57;102741.00;5125248;27;20122;-65
2022/12/01 09:38:37;;;;;;;34.45;16.88;;;;;;;10.33;59.65;102734.13;5126024;27;20058;-65
2022/12/01 09:41:09;;;;;;;30.55;17.20;;;;;;;10.33;59.88;102750.25;5125928;28;20051;-65
2022/12/01 09:43:41;;;;;;;33.47;18.13;;;;;;;10.15;60.31;102741.53;5136113;27;20073;-65
2022/12/01 09:46:14;;;;;;;34.03;17.42;;;;;;;9.99;60.47;102744.25;5132674;27;20044;-65
2022/12/01 09:48:45;;;;;;;28.67;17.60;;;;;;;9.72;61.49;102753.53;5125527;27;20047;-65
2022/12/01 09:51:16;;;;;;;32.65;18.30;;;;;;;9.52;62.10;102752.22;5142900;27;20043;-66
2022/12/01 09:53:44;;;;;;;31.90;17.77;;;;;;;9.43;62.13;102741.47;5146794;27;20090;-66
2022/12/01 09:56:21;;;;;;;35.25;18.50;;;;;;;9.34;63.02;102747.00;5146312;27;20051;-65
2022/12/01 09:58:52;;;;;;;30.05;17.58;;;;;;;9.26;62.68;102750.53;5132939;27;20050;-65
2022/12/01 10:01:26;;;;;;;31.40;17.55;;;;;;;9.19;63.02;102741.47;5139625;27;20061;-65
2022/12/01 10:03:57;;;;;;;33.22;18.08;;;;;;;9.16;63.40;102743.63;5145881;27;20066;-65
2022/12/01 10:06:34;;;;;;;31.08;18.08;;;;;;;9.08;63.06;102742.63;5139094;27;20047;-65
2022/12/01 10:09:10;;;;;;;33.75;18.25;;;;;;;9.07;63.40;102743.63;5125981;28;20058;-65
2022/12/01 10:11:41;;;;;;;30.77;17.48;;;;;;;9.05;63.56;102734.91;5124545;27;20055;-65
2022/12/01 10:14:13;;;;;;;31.08;17.63;;;;;;;9.04;63.56;102737.75;5142580;27;20062;-67
2022/12/01 10:16:55;;;;;;;32.08;19.23;;;;;;;9.09;63.31;102736.25;5130349;27;20047;-65
2022/12/01 10:19:28;;;;;;;34.95;18.08;;;;;;;9.22;63.06;102737.59;5144628;27;20047;-65
2022/12/01 10:22:15;;;;;;;33.67;17.20;;;;;;;9.43;62.94;102732.59;5143225;27;20126;-65
2022/12/01 10:24:54;;;;;;;30.80;17.95;;;;;;;9.48;62.11;102716.81;5125523;28;20125;-66
2022/12/01 10:27:37;;;;;;;29.63;16.85;;;;;;;9.76;61.39;102723.50;5128350;27;20051;-65
2022/12/01 10:30:08;;;;;;;33.00;18.92;;;;;;;9.93;61.07;102729.69;5124690;27;20044;-65
2022/12/01 10:32:45;;;;;;;32.88;18.75;;;;;;;10.08;60.44;102724.44;4773573;27;9999770;-66
2022/12/01 10:35:22;;;;;;;30.55;17.17;;;;;;;10.13;60.19;102718.53;5135367;27;20074;-66
2022/12/01 10:37:55;;;;;;;35.10;19.13;;;;;;;10.27;59.56;102717.84;5122030;27;20138;-66
2022/12/01 10:40:26;;;;;;;32.30;18.95;;;;;;;10.34;59.21;102711.59;5135854;27;20047;-65
2022/12/01 10:42:54;;;;;;;32.28;18.05;;;;;;;10.47;58.86;102718.25;5122934;27;20043;-66
2022/12/01 10:45:24;;;;;;;32.17;18.70;;;;;;;10.45;58.92;102715.72;5137181;27;20134;-66
2022/12/01 10:48:11;;;;;;;32.92;18.80;;;;;;;10.46;58.71;102695.06;5120836;28;20194;-66
2022/12/01 10:50:39;;;;;;;;;;;;;;;10.56;58.60;102706.44;5127445;27;20043;-66
2022/12/01 10:53:26;;;;;;;33.95;18.92;;;;;;;10.43;58.93;102704.31;5140969;27;20082;-66
2022/12/01 10:56:02;;;;;;;39.17;21.08;;;;;;;10.22;59.30;102706.78;5133111;27;20055;-66
2022/12/01 10:58:31;;;;;;;33.38;18.77;;;;;;;10.03;60.19;102702.63;5121035;28;20043;-66
2022/12/01 11:01:05;;;;;;;37.50;20.27;;;;;;;9.91;60.75;102701.31;5129096;27;20075;-66
2022/12/01 11:03:36;;;;;;;34.95;19.75;;;;;;;9.81;60.84;102703.34;5141219;27;20078;-66
2022/12/01 11:06:06;;;;;;;38.78;19.65;;;;;;;9.72;61.35;102698.00;5139810;27;20047;-66
2022/12/01 11:08:43;;;;;;;35.90;19.70;;;;;;;9.53;61.48;102681.41;5132725;27;20073;-67
2022/12/01 11:11:25;;;;;;;39.47;20.13;;;;;;;9.57;62.27;102688.13;5139955;27;20375;-67
2022/12/01 11:13:54;;;;;;;38.35;21.45;;;;;;;9.53;62.39;102695.69;5141599;27;20062;-66
2022/12/01 11:16:37;;;;;;;36.83;19.30;;;;;;;9.44;62.49;102702.06;5123809;27;20141;-66
2022/12/01 11:19:17;;;;;;;37.08;21.45;;;;;;;9.31;62.87;102699.03;5135426;27;20039;-66
2022/12/01 11:21:56;;;;;;;36.67;19.77;;;;;;;9.23;62.38;102688.31;5130919;27;20090;-66
2022/12/01 11:24:33;;;;;;;40.42;20.80;;;;;;;9.27;62.89;102695.03;5128763;27;20047;-66
2022/12/01 11:27:01;;;;;;;33.53;19.52;;;;;;;9.26;63.01;102696.88;5121227;28;20083;-67
2022/12/01 11:29:35;;;;;;;37.10;19.70;;;;;;;9.36;62.47;102691.31;5141007;27;20071;-67
2022/12/01 11:32:15;;;;;;;41.40;20.20;;;;;;;9.45;62.58;102680.41;5136328;27;20051;-66
2022/12/01 11:34:50;;;;;;;39.70;19.83;;;;;;;9.63;61.56;102682.06;5130825;28;20086;-67
2022/12/01 11:37:19;;;;;;;36.17;18.95;;;;;;;9.82;61.19;102679.00;5136833;28;20156;-67